Time;durP1;ratioP1;P1;durP2;ratioP2;P2;SDS_P1;SDS_P2;PMS_P1;PMS_P2;Temp;Humidity;BMP_temperature;BMP_pressure;BME280_temperature;BME280_humidity;BME280_pressure;Samples;Min_cycle;Max_cycle;Signal;HPM_P1;HPM_P2
2022/02/14 00:02:18;;;;;;;3.90;2.53;;;;;;;;;;5050534;28;20742;-82
2022/02/14 00:04:45;;;;;;;3.17;2.28;;;;;;;;;;5044424;28;20294;-83
2022/02/14 00:07:13;;;;;;;2.90;2.55;;;;;;;;;;5045054;28;20653;-82
2022/02/14 00:09:40;;;;;;;5.30;2.45;;;;;;;;;;5033854;28;20203;-80
2022/02/14 00:12:07;;;;;;;5.78;2.33;;;;;;;;;;5044938;28;20659;-79
2022/02/14 00:14:36;;;;;;;5.40;2.72;;;;;;;;;;5046054;28;20195;-82
2022/02/14 00:17:03;;;;;;;4.35;2.53;;;;;;;;;;5047155;28;20561;-82
2022/02/14 00:19:30;;;;;;;3.83;2.75;;;;;;;;;;5044330;28;20199;-80
2022/02/14 00:21:57;;;;;;;3.05;2.10;;;;;;;;;;5039959;28;20650;-80
2022/02/14 00:24:25;;;;;;;3.00;2.70;;;;;;;;;;5054133;28;20623;-81
2022/02/14 00:26:53;;;;;;;4.18;2.85;;;;;;;;;;5047158;28;20305;-80
2022/02/14 00:29:20;;;;;;;4.22;2.63;;;;;;;;;;5038266;28;20200;-81
2022/02/14 00:31:49;;;;;;;4.60;2.45;;;;;;;;;;5046536;28;20670;-81
2022/02/14 00:34:16;;;;;;;3.40;2.35;;;;;;;;;;5052631;28;20199;-80
2022/02/14 00:36:43;;;;;;;4.70;2.15;;;;;;;;;;5045574;28;20214;-80
2022/02/14 00:39:10;;;;;;;2.10;1.90;;;;;;;;;;5039878;28;20677;-80
2022/02/14 00:41:37;;;;;;;2.53;2.30;;;;;;;;;;5046709;28;20641;-81
2022/02/14 00:44:05;;;;;;;4.90;2.20;;;;;;;;;;5046482;28;20195;-79
2022/02/14 00:46:32;;;;;;;2.83;2.53;;;;;;;;;;5047085;28;20712;-79
2022/02/14 00:49:00;;;;;;;3.33;2.45;;;;;;;;;;5049325;28;20191;-80
2022/02/14 00:51:27;;;;;;;4.05;2.53;;;;;;;;;;5046650;28;20199;-80
2022/02/14 00:53:54;;;;;;;4.00;2.60;;;;;;;;;;5046518;28;20203;-80
2022/02/14 00:56:21;;;;;;;2.08;1.70;;;;;;;;;;5049308;28;20199;-79
2022/02/14 00:58:48;;;;;;;2.90;2.30;;;;;;;;;;5044734;28;20218;-79
2022/02/14 01:01:16;;;;;;;3.58;1.60;;;;;;;;;;5051717;28;20214;-80
2022/02/14 01:03:43;;;;;;;3.70;2.30;;;;;;;;;;5043460;28;20206;-80
2022/02/14 01:06:11;;;;;;;5.03;2.50;;;;;;;;;;5042674;28;20645;-79
2022/02/14 01:08:38;;;;;;;3.85;2.22;;;;;;;;;;5041600;28;20223;-79
2022/02/14 01:11:05;;;;;;;4.13;3.17;;;;;;;;;;5063875;28;20198;-80
2022/02/14 01:13:32;;;;;;;2.55;2.30;;;;;;;;;;5040833;28;20211;-80
2022/02/14 01:16:00;;;;;;;4.38;2.45;;;;;;;;;;5040260;28;20574;-80
2022/02/14 01:18:27;;;;;;;3.35;1.85;;;;;;;;;;5042331;28;20207;-80
2022/02/14 01:20:54;;;;;;;4.07;2.50;;;;;;;;;;5041565;28;20201;-80
2022/02/14 01:23:22;;;;;;;4.63;2.67;;;;;;;;;;5046709;28;20277;-81
2022/02/14 01:25:49;;;;;;;6.28;3.45;;;;;;;;;;5035745;28;20196;-80
2022/02/14 01:28:16;;;;;;;4.70;2.58;;;;;;;;;;5052778;28;20682;-80
2022/02/14 01:30:43;;;;;;;3.10;2.20;;;;;;;;;;5048065;28;20644;-81
2022/02/14 01:33:11;;;;;;;4.95;1.92;;;;;;;;;;5049568;28;20212;-81
2022/02/14 01:35:38;;;;;;;2.53;1.88;;;;;;;;;;5044302;28;20200;-80
2022/02/14 01:38:05;;;;;;;3.78;2.20;;;;;;;;;;5043530;28;20198;-81
2022/02/14 01:40:34;;;;;;;4.60;1.85;;;;;;;;;;5060757;28;20198;-80
2022/02/14 01:43:01;;;;;;;2.65;1.90;;;;;;;;;;5043805;28;20282;-79
2022/02/14 01:45:28;;;;;;;4.47;2.55;;;;;;;;;;5039043;28;20223;-80
2022/02/14 01:47:55;;;;;;;2.83;2.53;;;;;;;;;;5048120;28;20207;-80
2022/02/14 01:50:22;;;;;;;4.30;2.15;;;;;;;;;;5044645;28;20209;-79
2022/02/14 01:52:53;;;;;;;2.95;2.10;;;;;;;;;;5038898;28;20648;-79
2022/02/14 01:55:21;;;;;;;5.82;2.33;;;;;;;;;;5032468;28;20204;-79
2022/02/14 01:57:50;;;;;;;3.97;3.65;;;;;;;;;;5043321;28;20195;-79
2022/02/14 02:00:19;;;;;;;3.92;2.10;;;;;;;;;;5047354;28;20290;-79
2022/02/14 02:02:47;;;;;;;2.97;1.80;;;;;;;;;;5051315;28;20276;-80
2022/02/14 02:05:14;;;;;;;3.88;2.67;;;;;;;;;;5059995;28;20198;-80
2022/02/14 02:07:41;;;;;;;6.53;2.00;;;;;;;;;;5043630;28;20234;-80
2022/02/14 02:10:10;;;;;;;5.22;2.65;;;;;;;;;;5046979;28;20195;-81
2022/02/14 02:12:37;;;;;;;3.83;2.28;;;;;;;;;;5047318;28;20202;-80
2022/02/14 02:15:07;;;;;;;5.93;2.40;;;;;;;;;;5046750;28;20199;-80
2022/02/14 02:17:35;;;;;;;3.08;2.60;;;;;;;;;;5044108;28;20206;-80
2022/02/14 02:20:06;;;;;;;4.07;2.40;;;;;;;;;;5038134;28;20199;-81
2022/02/14 02:22:33;;;;;;;3.97;2.45;;;;;;;;;;5047836;28;20222;-81
2022/02/14 02:25:01;;;;;;;7.55;3.17;;;;;;;;;;5050137;28;20194;-79
2022/02/14 02:27:29;;;;;;;3.30;1.98;;;;;;;;;;5035138;28;20234;-80
2022/02/14 02:29:56;;;;;;;3.10;2.10;;;;;;;;;;5045197;28;20202;-81
2022/02/14 02:32:24;;;;;;;4.00;1.70;;;;;;;;;;5040422;28;20202;-79
2022/02/14 02:34:51;;;;;;;6.45;2.35;;;;;;;;;;5038877;28;20214;-79
2022/02/14 02:37:18;;;;;;;2.72;2.53;;;;;;;;;;5045080;28;20549;-80
2022/02/14 02:39:46;;;;;;;2.00;1.80;;;;;;;;;;5046851;28;20202;-80
2022/02/14 02:42:17;;;;;;;3.22;2.10;;;;;;;;;;5042230;28;20192;-80
2022/02/14 02:44:44;;;;;;;2.20;1.90;;;;;;;;;;5036981;28;20595;-80
2022/02/14 02:47:12;;;;;;;4.88;2.70;;;;;;;;;;5046520;28;20655;-80
2022/02/14 02:49:40;;;;;;;2.70;1.95;;;;;;;;;;5047029;28;20565;-80
2022/02/14 02:52:08;;;;;;;7.80;3.40;;;;;;;;;;5049307;28;20206;-80
2022/02/14 02:54:36;;;;;;;3.40;2.08;;;;;;;;;;5050638;28;20203;-80
2022/02/14 02:57:03;;;;;;;2.40;2.00;;;;;;;;;;5049277;28;20195;-80
2022/02/14 02:59:33;;;;;;;3.08;2.00;;;;;;;;;;5046475;28;20203;-80
2022/02/14 03:02:01;;;;;;;5.35;2.65;;;;;;;;;;5040787;28;20202;-80
2022/02/14 03:04:28;;;;;;;3.13;2.20;;;;;;;;;;5039385;28;20647;-80
2022/02/14 03:06:56;;;;;;;4.65;2.33;;;;;;;;;;5048150;28;20195;-80
2022/02/14 03:09:23;;;;;;;2.72;2.20;;;;;;;;;;5048207;28;20333;-80
2022/02/14 03:11:50;;;;;;;2.67;2.10;;;;;;;;;;5035518;28;20203;-79
2022/02/14 03:14:17;;;;;;;5.90;2.58;;;;;;;;;;5046841;28;20488;-79
2022/02/14 03:16:46;;;;;;;12.15;2.10;;;;;;;;;;5042846;28;20202;-80
2022/02/14 03:19:13;;;;;;;4.65;2.15;;;;;;;;;;5061575;28;20202;-81
2022/02/14 03:21:40;;;;;;;2.40;1.85;;;;;;;;;;5051282;28;20195;-80
2022/02/14 03:24:08;;;;;;;2.88;1.95;;;;;;;;;;5052264;28;20206;-81
2022/02/14 03:26:35;;;;;;;3.75;2.20;;;;;;;;;;5063298;28;20232;-81
2022/02/14 03:29:03;;;;;;;2.95;1.92;;;;;;;;;;5060074;28;20229;-81
2022/02/14 03:31:30;;;;;;;3.25;2.20;;;;;;;;;;5052985;28;20222;-80
2022/02/14 03:33:58;;;;;;;4.45;2.50;;;;;;;;;;5056603;28;20202;-81
2022/02/14 03:36:26;;;;;;;5.15;2.80;;;;;;;;;;5057667;28;20646;-80
2022/02/14 03:38:53;;;;;;;4.15;2.45;;;;;;;;;;5051242;28;20191;-80
2022/02/14 03:41:20;;;;;;;2.03;1.83;;;;;;;;;;5044142;28;20211;-80
2022/02/14 03:43:47;;;;;;;2.03;1.83;;;;;;;;;;5046629;28;20214;-80
2022/02/14 03:46:15;;;;;;;3.45;2.30;;;;;;;;;;5054450;28;20247;-79
2022/02/14 03:48:42;;;;;;;2.38;2.13;;;;;;;;;;5051952;28;20220;-79
2022/02/14 03:51:10;;;;;;;3.25;2.53;;;;;;;;;;5060289;28;20684;-80
2022/02/14 03:53:37;;;;;;;2.70;2.45;;;;;;;;;;5048095;28;20202;-79
2022/02/14 03:56:05;;;;;;;3.92;2.00;;;;;;;;;;5051575;28;20198;-79
2022/02/14 03:58:33;;;;;;;3.85;2.05;;;;;;;;;;5052597;28;20571;-78
2022/02/14 04:01:00;;;;;;;3.63;2.10;;;;;;;;;;5040904;28;20571;-79
2022/02/14 04:03:27;;;;;;;2.78;1.83;;;;;;;;;;5041173;28;20200;-79
2022/02/14 04:05:54;;;;;;;2.13;1.92;;;;;;;;;;5051631;28;20199;-78
2022/02/14 04:08:23;;;;;;;4.03;2.10;;;;;;;;;;5041922;28;20218;-79
2022/02/14 04:10:52;;;;;;;2.25;1.85;;;;;;;;;;5053725;28;20199;-79
2022/02/14 04:13:19;;;;;;;4.28;2.65;;;;;;;;;;5042680;28;20577;-80
2022/02/14 04:15:46;;;;;;;3.28;2.20;;;;;;;;;;5053998;28;20209;-79
2022/02/14 04:18:13;;;;;;;3.30;2.10;;;;;;;;;;5045582;28;20192;-79
2022/02/14 04:20:40;;;;;;;5.15;2.33;;;;;;;;;;5038956;28;20206;-78
2022/02/14 04:23:07;;;;;;;3.17;2.03;;;;;;;;;;5045721;28;20202;-80
2022/02/14 04:25:35;;;;;;;3.58;1.95;;;;;;;;;;5054266;28;20202;-78
2022/02/14 04:28:03;;;;;;;5.10;2.53;;;;;;;;;;5059968;28;20319;-78
2022/02/14 04:30:31;;;;;;;2.55;2.00;;;;;;;;;;5053868;28;21008;-78
2022/02/14 04:33:00;;;;;;;4.07;2.00;;;;;;;;;;5045898;28;20218;-78
2022/02/14 04:35:27;;;;;;;4.13;2.20;;;;;;;;;;5055511;28;20539;-78
2022/02/14 04:37:59;;;;;;;4.40;1.88;;;;;;;;;;5036502;28;20230;-78
2022/02/14 04:43:30;;;;;;;2.38;2.15;;;;;;;;;;5040132;28;20213;-79
2022/02/14 04:45:57;;;;;;;5.55;2.10;;;;;;;;;;5047599;28;20241;-78
2022/02/14 04:48:25;;;;;;;3.35;1.60;;;;;;;;;;5054623;28;20222;-78
2022/02/14 04:50:52;;;;;;;1.80;1.50;;;;;;;;;;5052858;28;20204;-78
2022/02/14 04:53:19;;;;;;;4.90;1.95;;;;;;;;;;5061800;28;20211;-78
2022/02/14 04:55:46;;;;;;;2.78;1.88;;;;;;;;;;5048966;28;20210;-78
2022/02/14 04:58:13;;;;;;;4.78;2.70;;;;;;;;;;5046521;28;20671;-78
2022/02/14 05:00:41;;;;;;;3.05;2.00;;;;;;;;;;5050241;28;20212;-78
2022/02/14 05:03:08;;;;;;;2.10;1.70;;;;;;;;;;5050067;28;20653;-79
2022/02/14 05:05:35;;;;;;;5.05;1.92;;;;;;;;;;5062889;28;20198;-78
2022/02/14 05:08:02;;;;;;;2.88;1.85;;;;;;;;;;5049053;28;20203;-78
2022/02/14 05:10:29;;;;;;;3.15;2.08;;;;;;;;;;5044653;28;20195;-79
2022/02/14 05:12:56;;;;;;;5.93;2.40;;;;;;;;;;5038988;28;20207;-79
2022/02/14 05:15:23;;;;;;;6.35;2.13;;;;;;;;;;5050767;28;20249;-79
2022/02/14 05:17:52;;;;;;;3.67;2.25;;;;;;;;;;5046327;28;20206;-79
2022/02/14 05:20:19;;;;;;;3.90;2.10;;;;;;;;;;5050390;28;20191;-79
2022/02/14 05:22:46;;;;;;;2.13;1.52;;;;;;;;;;5037169;28;20658;-80
2022/02/14 05:25:13;;;;;;;1.65;1.50;;;;;;;;;;5059022;28;20204;-80
2022/02/14 05:27:40;;;;;;;2.17;1.90;;;;;;;;;;5058042;28;20206;-80
2022/02/14 05:30:08;;;;;;;7.22;1.63;;;;;;;;;;5044044;28;20225;-79
2022/02/14 05:32:35;;;;;;;2.80;1.90;;;;;;;;;;5040495;28;20203;-79
2022/02/14 05:35:03;;;;;;;2.85;1.75;;;;;;;;;;5062413;28;20568;-80
2022/02/14 05:37:30;;;;;;;3.60;1.45;;;;;;;;;;5051884;28;20285;-79
2022/02/14 05:39:57;;;;;;;2.40;2.20;;;;;;;;;;5056861;28;20285;-79
2022/02/14 05:42:26;;;;;;;2.60;1.50;;;;;;;;;;5046972;28;20207;-79
2022/02/14 05:44:53;;;;;;;9.43;1.98;;;;;;;;;;5048850;28;20221;-78
2022/02/14 05:47:20;;;;;;;2.10;1.70;;;;;;;;;;5057885;28;20428;-78
2022/02/14 05:49:47;;;;;;;1.60;1.50;;;;;;;;;;5054310;28;20221;-78
2022/02/14 05:52:16;;;;;;;2.90;1.60;;;;;;;;;;5050587;28;20202;-80
2022/02/14 05:54:43;;;;;;;5.20;2.00;;;;;;;;;;5050117;28;20253;-80
2022/02/14 05:57:10;;;;;;;3.20;1.60;;;;;;;;;;5049242;28;20197;-79
2022/02/14 05:59:37;;;;;;;3.03;2.03;;;;;;;;;;5045035;28;20652;-79
2022/02/14 06:02:06;;;;;;;3.28;1.75;;;;;;;;;;5041153;28;20219;-80
2022/02/14 06:04:33;;;;;;;2.75;2.33;;;;;;;;;;5054001;28;20202;-79
2022/02/14 06:07:00;;;;;;;1.83;1.73;;;;;;;;;;5053341;28;20195;-79
2022/02/14 06:09:29;;;;;;;6.65;1.88;;;;;;;;;;5041281;28;20214;-79
2022/02/14 06:11:57;;;;;;;6.90;1.80;;;;;;;;;;5033910;28;20199;-79
2022/02/14 06:14:24;;;;;;;3.28;1.60;;;;;;;;;;5042832;28;20199;-79
2022/02/14 06:16:51;;;;;;;2.78;1.98;;;;;;;;;;5041086;28;20214;-79
2022/02/14 06:19:18;;;;;;;2.33;1.85;;;;;;;;;;5044814;28;20213;-80
2022/02/14 06:21:45;;;;;;;2.15;1.65;;;;;;;;;;5037921;28;20667;-80
2022/02/14 06:24:12;;;;;;;3.10;2.00;;;;;;;;;;5052154;28;20213;-80
2022/02/14 06:26:40;;;;;;;4.32;1.80;;;;;;;;;;5042064;28;20195;-80
2022/02/14 06:29:08;;;;;;;3.08;2.10;;;;;;;;;;5051096;28;20686;-80
2022/02/14 06:31:35;;;;;;;3.25;1.80;;;;;;;;;;5046420;28;20234;-81
2022/02/14 06:34:02;;;;;;;5.18;1.75;;;;;;;;;;5048351;28;20530;-80
2022/02/14 06:36:30;;;;;;;3.40;1.88;;;;;;;;;;5051275;28;20785;-81
2022/02/14 06:38:58;;;;;;;2.20;2.00;;;;;;;;;;5043079;28;20678;-81
2022/02/14 06:41:25;;;;;;;3.15;1.70;;;;;;;;;;5040001;28;20206;-80
2022/02/14 06:43:55;;;;;;;1.73;1.58;;;;;;;;;;5047521;28;20701;-80
2022/02/14 06:46:22;;;;;;;3.03;1.75;;;;;;;;;;5040369;28;20229;-80
2022/02/14 06:48:49;;;;;;;1.50;1.40;;;;;;;;;;5057938;28;20233;-80
2022/02/14 06:51:18;;;;;;;1.95;1.70;;;;;;;;;;5042229;28;20674;-80
2022/02/14 06:53:45;;;;;;;2.05;1.58;;;;;;;;;;5056924;28;20600;-79
2022/02/14 06:56:12;;;;;;;6.18;1.80;;;;;;;;;;5061033;28;20198;-79
2022/02/14 06:58:40;;;;;;;1.75;1.50;;;;;;;;;;5042573;28;20560;-80
2022/02/14 07:01:09;;;;;;;2.28;1.85;;;;;;;;;;5039340;28;20205;-80
2022/02/14 07:03:37;;;;;;;3.35;2.30;;;;;;;;;;5040490;28;20230;-80
2022/02/14 07:06:04;;;;;;;3.47;1.70;;;;;;;;;;5042886;28;20194;-81
2022/02/14 07:08:32;;;;;;;5.03;1.58;;;;;;;;;;5067268;28;20202;-81
2022/02/14 07:10:59;;;;;;;1.95;1.75;;;;;;;;;;5056396;28;20285;-81
2022/02/14 07:13:26;;;;;;;3.25;1.50;;;;;;;;;;5048734;28;20271;-81
2022/02/14 07:15:53;;;;;;;2.85;1.80;;;;;;;;;;5049886;28;20571;-81
2022/02/14 07:18:22;;;;;;;2.30;1.73;;;;;;;;;;5045716;28;20194;-80
2022/02/14 07:20:49;;;;;;;2.10;1.67;;;;;;;;;;5049144;28;20203;-80
2022/02/14 07:23:16;;;;;;;4.15;1.92;;;;;;;;;;5040799;28;20381;-80
2022/02/14 07:25:43;;;;;;;1.58;1.48;;;;;;;;;;5050552;28;20206;-80
2022/02/14 07:28:10;;;;;;;2.95;1.63;;;;;;;;;;5050317;28;20198;-80
2022/02/14 07:30:37;;;;;;;1.77;1.40;;;;;;;;;;5052312;28;20226;-80
2022/02/14 07:33:04;;;;;;;1.90;1.70;;;;;;;;;;5050955;28;20228;-80
2022/02/14 07:35:33;;;;;;;1.40;1.30;;;;;;;;;;5051384;28;20562;-79
2022/02/14 07:38:00;;;;;;;2.65;2.22;;;;;;;;;;5048425;28;20198;-80
2022/02/14 07:40:29;;;;;;;2.63;1.98;;;;;;;;;;5050768;28;20654;-79
2022/02/14 07:42:56;;;;;;;3.75;1.42;;;;;;;;;;5045436;28;20203;-76
2022/02/14 07:45:23;;;;;;;1.70;1.58;;;;;;;;;;5040280;28;20230;-76
2022/02/14 07:47:50;;;;;;;3.65;1.80;;;;;;;;;;5053879;28;20572;-75
2022/02/14 07:50:19;;;;;;;2.47;1.65;;;;;;;;;;5047413;28;20207;-77
2022/02/14 07:52:48;;;;;;;2.45;1.70;;;;;;;;;;5047268;28;20187;-79
2022/02/14 07:55:15;;;;;;;2.05;1.80;;;;;;;;;;5041841;28;20544;-80
2022/02/14 07:57:42;;;;;;;2.22;1.50;;;;;;;;;;5046278;28;20670;-79
2022/02/14 08:00:09;;;;;;;4.05;1.98;;;;;;;;;;5051313;28;20206;-78
2022/02/14 08:02:37;;;;;;;1.58;1.40;;;;;;;;;;5060736;28;20227;-80
2022/02/14 08:05:04;;;;;;;2.58;1.63;;;;;;;;;;5043569;28;21213;-79
2022/02/14 08:07:33;;;;;;;1.60;1.50;;;;;;;;;;5043437;28;20688;-79
2022/02/14 08:10:01;;;;;;;6.40;1.80;;;;;;;;;;5043645;28;20223;-79
2022/02/14 08:12:29;;;;;;;2.95;1.45;;;;;;;;;;5049720;28;20195;-79
2022/02/14 08:14:56;;;;;;;2.67;1.45;;;;;;;;;;5043662;28;20661;-79
2022/02/14 08:17:23;;;;;;;4.90;1.23;;;;;;;;;;5044111;28;20202;-80
2022/02/14 08:19:50;;;;;;;2.25;1.63;;;;;;;;;;5038020;28;20203;-79
2022/02/14 08:22:17;;;;;;;3.00;1.90;;;;;;;;;;5049384;28;20218;-80
2022/02/14 08:24:45;;;;;;;2.17;1.67;;;;;;;;;;5038102;28;20686;-80
2022/02/14 08:27:13;;;;;;;2.33;1.40;;;;;;;;;;5044363;28;20199;-80
2022/02/14 08:29:44;;;;;;;1.80;1.48;;;;;;;;;;5046710;28;20305;-79
2022/02/14 08:32:11;;;;;;;2.85;1.70;;;;;;;;;;5031100;28;20203;-80
2022/02/14 08:34:38;;;;;;;1.83;1.50;;;;;;;;;;5044416;28;20206;-79
2022/02/14 08:37:05;;;;;;;3.85;1.75;;;;;;;;;;5037524;28;20198;-80
2022/02/14 08:39:32;;;;;;;2.05;1.60;;;;;;;;;;5046129;28;20206;-80
2022/02/14 08:41:59;;;;;;;2.63;1.52;;;;;;;;;;5050258;28;20803;-79
2022/02/14 08:44:28;;;;;;;3.35;1.50;;;;;;;;;;5046015;28;20194;-80
2022/02/14 08:46:55;;;;;;;2.67;1.67;;;;;;;;;;5037572;28;20594;-79
2022/02/14 08:49:24;;;;;;;2.38;1.50;;;;;;;;;;5047561;28;20313;-79
2022/02/14 08:51:51;;;;;;;2.35;1.50;;;;;;;;;;5036501;28;20241;-80
2022/02/14 08:54:18;;;;;;;2.45;2.25;;;;;;;;;;5045224;28;20613;-79
2022/02/14 08:56:45;;;;;;;2.50;1.25;;;;;;;;;;5038811;28;20199;-79
2022/02/14 08:59:19;;;;;;;1.65;1.55;;;;;;;;;;5041680;28;20234;-79
2022/02/14 09:01:47;;;;;;;4.10;1.60;;;;;;;;;;5046534;28;20226;-79
2022/02/14 09:04:14;;;;;;;1.73;1.42;;;;;;;;;;5040084;28;20635;-79
2022/02/14 09:06:41;;;;;;;2.22;1.80;;;;;;;;;;5043931;28;20202;-80
2022/02/14 09:09:08;;;;;;;1.55;1.45;;;;;;;;;;5047156;28;20247;-79
2022/02/14 09:11:38;;;;;;;1.25;1.13;;;;;;;;;;5056771;28;20209;-80
2022/02/14 09:14:05;;;;;;;2.40;1.40;;;;;;;;;;5038802;28;20244;-79
2022/02/14 09:16:34;;;;;;;1.75;1.40;;;;;;;;;;5045520;28;20469;-79
2022/02/14 09:19:03;;;;;;;1.92;1.40;;;;;;;;;;5049628;28;20205;-79
2022/02/14 09:21:30;;;;;;;1.98;1.40;;;;;;;;;;5049457;28;20565;-79
2022/02/14 09:23:57;;;;;;;1.65;1.45;;;;;;;;;;5043445;28;20203;-79
2022/02/14 09:26:24;;;;;;;3.45;1.55;;;;;;;;;;5045648;28;20202;-80
2022/02/14 09:28:51;;;;;;;2.25;1.50;;;;;;;;;;5039307;28;20198;-80
2022/02/14 09:31:18;;;;;;;1.63;1.48;;;;;;;;;;5045546;28;20219;-80
2022/02/14 09:33:45;;;;;;;2.30;1.50;;;;;;;;;;5044399;28;21009;-79
2022/02/14 09:36:15;;;;;;;2.15;1.25;;;;;;;;;;5051900;28;20202;-79
2022/02/14 09:38:44;;;;;;;3.30;1.75;;;;;;;;;;5052703;28;20304;-79
2022/02/14 09:41:11;;;;;;;1.80;1.40;;;;;;;;;;5050347;28;20187;-80
2022/02/14 09:43:38;;;;;;;3.15;1.70;;;;;;;;;;5045999;28;20204;-80
2022/02/14 09:46:06;;;;;;;2.85;1.60;;;;;;;;;;5047805;28;20230;-79
2022/02/14 09:48:34;;;;;;;2.10;1.52;;;;;;;;;;5049982;28;20641;-79
2022/02/14 09:51:01;;;;;;;1.70;1.48;;;;;;;;;;5050838;28;20230;-80
2022/02/14 09:53:30;;;;;;;3.30;1.63;;;;;;;;;;5046275;28;20289;-80
2022/02/14 09:55:58;;;;;;;1.33;1.23;;;;;;;;;;5040307;28;20282;-79
2022/02/14 09:58:25;;;;;;;2.55;1.65;;;;;;;;;;5045522;28;20202;-80
2022/02/14 10:00:52;;;;;;;1.23;1.13;;;;;;;;;;5054752;28;20249;-80
2022/02/14 10:03:20;;;;;;;3.50;1.40;;;;;;;;;;5053642;28;20205;-79
2022/02/14 10:05:48;;;;;;;1.27;1.17;;;;;;;;;;5055603;28;20203;-79
2022/02/14 10:08:22;;;;;;;2.78;1.48;;;;;;;;;;5046912;28;20198;-79
2022/02/14 10:10:51;;;;;;;1.60;1.33;;;;;;;;;;5047084;28;20211;-80
2022/02/14 10:13:34;;;;;;;3.17;1.40;;;;;;;;;;5037551;28;20557;-80
2022/02/14 10:16:01;;;;;;;2.38;1.55;;;;;;;;;;5045155;28;20206;-79
2022/02/14 10:18:29;;;;;;;1.30;1.20;;;;;;;;;;5042474;28;20195;-80
2022/02/14 10:21:15;;;;;;;2.75;1.90;;;;;;;;;;5045074;28;20646;-79
2022/02/14 10:23:57;;;;;;;2.38;1.40;;;;;;;;;;5047136;28;20202;-79
2022/02/14 10:26:27;;;;;;;1.90;1.60;;;;;;;;;;5036065;28;20195;-79
2022/02/14 10:28:59;;;;;;;1.33;1.20;;;;;;;;;;5042766;28;20201;-78
2022/02/14 10:31:27;;;;;;;1.20;1.00;;;;;;;;;;5042942;28;20221;-76
2022/02/14 10:33:55;;;;;;;1.30;1.13;;;;;;;;;;5043782;28;20222;-79
2022/02/14 10:36:26;;;;;;;2.85;1.70;;;;;;;;;;5049455;28;20199;-80
2022/02/14 10:38:53;;;;;;;3.78;1.42;;;;;;;;;;5038726;28;20205;-80
2022/02/14 10:41:20;;;;;;;2.40;1.55;;;;;;;;;;5042088;28;20190;-81
2022/02/14 10:43:49;;;;;;;2.63;1.40;;;;;;;;;;5041224;28;20198;-79
2022/02/14 10:46:20;;;;;;;2.40;1.08;;;;;;;;;;5038649;28;20211;-79
2022/02/14 10:48:47;;;;;;;2.20;1.50;;;;;;;;;;5042287;28;20196;-80
2022/02/14 10:51:18;;;;;;;1.35;1.00;;;;;;;;;;5043918;28;20690;-79
2022/02/14 10:53:45;;;;;;;3.95;1.58;;;;;;;;;;5043869;28;20219;-79
2022/02/14 10:56:13;;;;;;;1.90;1.38;;;;;;;;;;5036959;28;20198;-79
2022/02/14 10:58:41;;;;;;;2.05;1.30;;;;;;;;;;5040979;28;20202;-80
2022/02/14 11:01:11;;;;;;;1.67;1.40;;;;;;;;;;5041224;28;20209;-80
2022/02/14 11:03:41;;;;;;;3.08;1.70;;;;;;;;;;5046421;28;20202;-79
2022/02/14 11:06:09;;;;;;;1.67;0.98;;;;;;;;;;5038506;28;20647;-79
2022/02/14 11:08:37;;;;;;;2.65;1.75;;;;;;;;;;5039761;28;20208;-79
2022/02/14 11:11:05;;;;;;;3.03;1.92;;;;;;;;;;5036125;28;20217;-79
2022/02/14 11:13:33;;;;;;;2.90;1.42;;;;;;;;;;5038112;28;20291;-79
2022/02/14 11:16:02;;;;;;;2.30;1.40;;;;;;;;;;5043257;28;20290;-79
2022/02/14 11:18:32;;;;;;;1.73;1.45;;;;;;;;;;5041836;28;20210;-80
2022/02/14 11:21:00;;;;;;;1.85;1.35;;;;;;;;;;5039019;28;20722;-79
2022/02/14 11:23:30;;;;;;;3.55;1.42;;;;;;;;;;5035994;28;20198;-80
2022/02/14 11:26:02;;;;;;;2.70;1.35;;;;;;;;;;5036298;28;20245;-79
2022/02/14 11:28:31;;;;;;;2.45;1.52;;;;;;;;;;5041838;28;20203;-79
2022/02/14 11:31:08;;;;;;;4.80;1.70;;;;;;;;;;5042206;28;20628;-80
2022/02/14 11:33:37;;;;;;;2.65;2.05;;;;;;;;;;5052175;28;20705;-79
2022/02/14 11:36:06;;;;;;;1.48;1.25;;;;;;;;;;5042807;28;20211;-80
2022/02/14 11:38:46;;;;;;;2.75;1.20;;;;;;;;;;5044356;28;20651;-80
2022/02/14 11:41:29;;;;;;;2.13;1.48;;;;;;;;;;5031122;28;20195;-80
2022/02/14 11:44:14;;;;;;;1.30;1.10;;;;;;;;;;5040061;28;20248;-80
2022/02/14 11:46:42;;;;;;;1.20;1.10;;;;;;;;;;5041645;28;20223;-79
2022/02/14 11:49:15;;;;;;;2.08;1.17;;;;;;;;;;5044489;28;20732;-80
2022/02/14 11:51:43;;;;;;;1.30;1.13;;;;;;;;;;5040899;28;20227;-80
2022/02/14 11:54:25;;;;;;;1.30;0.90;;;;;;;;;;5032978;28;20207;-80
2022/02/14 11:56:53;;;;;;;1.58;0.95;;;;;;;;;;5042545;28;20199;-80
2022/02/14 11:59:28;;;;;;;1.13;0.95;;;;;;;;;;5031407;28;20207;-79
2022/02/14 12:01:59;;;;;;;2.55;1.20;;;;;;;;;;5048658;28;20573;-79
2022/02/14 12:04:46;;;;;;;1.63;1.17;;;;;;;;;;5049946;28;20288;-80
2022/02/14 12:07:33;;;;;;;1.92;1.10;;;;;;;;;;5044456;28;20730;-79
2022/02/14 12:10:19;;;;;;;1.42;1.00;;;;;;;;;;5033747;28;20203;-80
2022/02/14 12:13:08;;;;;;;3.17;1.23;;;;;;;;;;5033347;28;20202;-80
2022/02/14 12:21:19;;;;;;;1.00;0.88;;;;;;;;;;5048743;28;20206;-79
2022/02/14 12:23:48;;;;;;;1.20;1.10;;;;;;;;;;5051674;28;20941;-79
2022/02/14 12:26:16;;;;;;;1.10;0.90;;;;;;;;;;5044873;28;20206;-80
2022/02/14 12:28:43;;;;;;;1.90;1.20;;;;;;;;;;5046550;28;20210;-79
2022/02/14 12:31:12;;;;;;;2.55;0.90;;;;;;;;;;5044670;28;20223;-79
2022/02/14 12:33:39;;;;;;;1.45;0.90;;;;;;;;;;5038679;28;20203;-79
2022/02/14 12:36:07;;;;;;;1.48;0.80;;;;;;;;;;5039720;28;20618;-79
2022/02/14 12:38:37;;;;;;;1.90;1.08;;;;;;;;;;5040690;28;20210;-79
2022/02/14 12:41:04;;;;;;;1.10;1.00;;;;;;;;;;5049474;28;20499;-79
2022/02/14 12:43:34;;;;;;;1.02;0.80;;;;;;;;;;5047596;28;20199;-80
2022/02/14 12:46:05;;;;;;;1.75;1.10;;;;;;;;;;5053123;28;20802;-80
2022/02/14 12:48:34;;;;;;;1.90;1.00;;;;;;;;;;5041787;28;20207;-80
2022/02/14 12:51:02;;;;;;;1.00;0.90;;;;;;;;;;5051872;28;20219;-80
2022/02/14 12:53:29;;;;;;;2.88;0.90;;;;;;;;;;5050316;28;20663;-80
2022/02/14 12:56:00;;;;;;;1.38;1.05;;;;;;;;;;5048218;28;20675;-79
2022/02/14 12:58:27;;;;;;;1.10;0.77;;;;;;;;;;5038728;28;20566;-79
2022/02/14 13:01:03;;;;;;;1.75;1.05;;;;;;;;;;5039344;28;20617;-79
2022/02/14 13:03:31;;;;;;;3.20;0.88;;;;;;;;;;5043912;28;20282;-80
2022/02/14 13:05:59;;;;;;;2.03;0.90;;;;;;;;;;5044377;28;20199;-80
2022/02/14 13:08:26;;;;;;;1.40;0.98;;;;;;;;;;5052306;28;20209;-79
2022/02/14 13:10:55;;;;;;;1.40;0.75;;;;;;;;;;5041236;28;20227;-79
2022/02/14 13:13:34;;;;;;;1.00;0.90;;;;;;;;;;5046812;28;20260;-79
2022/02/14 13:16:02;;;;;;;2.35;0.90;;;;;;;;;;5035120;28;20290;-81
2022/02/14 13:18:39;;;;;;;10.30;1.60;;;;;;;;;;5043666;28;20194;-80
2022/02/14 13:21:08;;;;;;;1.40;0.90;;;;;;;;;;5047854;28;20198;-80
2022/02/14 13:23:35;;;;;;;3.05;1.00;;;;;;;;;;5046214;28;20245;-80
2022/02/14 13:26:03;;;;;;;1.20;0.80;;;;;;;;;;5047923;28;20201;-80
2022/02/14 13:28:30;;;;;;;1.92;1.00;;;;;;;;;;5041273;28;20203;-80
2022/02/14 13:30:57;;;;;;;3.10;1.10;;;;;;;;;;5047914;28;20585;-80
2022/02/14 13:33:24;;;;;;;1.10;1.00;;;;;;;;;;5043611;28;20192;-79
2022/02/14 13:35:52;;;;;;;1.63;0.90;;;;;;;;;;5041942;28;20211;-80
2022/02/14 13:38:32;;;;;;;0.93;0.82;;;;;;;;;;5035413;28;20560;-79
2022/02/14 13:41:02;;;;;;;4.22;1.00;;;;;;;;;;5036155;28;20654;-80
2022/02/14 13:43:33;;;;;;;1.98;1.27;;;;;;;;;;5029950;28;20515;-81
2022/02/14 13:46:01;;;;;;;1.92;0.85;;;;;;;;;;5033802;28;20582;-80
2022/02/14 13:48:29;;;;;;;1.00;0.90;;;;;;;;;;5044772;28;20199;-80
2022/02/14 13:50:57;;;;;;;2.08;1.10;;;;;;;;;;5046478;28;20225;-80
2022/02/14 13:53:26;;;;;;;2.75;0.88;;;;;;;;;;5043298;28;20601;-80
2022/02/14 13:56:06;;;;;;;1.17;1.02;;;;;;;;;;5045951;28;20195;-79
2022/02/14 13:58:36;;;;;;;2.28;1.20;;;;;;;;;;5037353;28;20207;-80
2022/02/14 14:01:05;;;;;;;1.00;0.80;;;;;;;;;;5038476;28;20213;-79
2022/02/14 14:03:32;;;;;;;1.55;1.00;;;;;;;;;;5045281;28;20274;-80
2022/02/14 14:05:59;;;;;;;1.30;0.90;;;;;;;;;;5034248;28;20202;-79
2022/02/14 14:08:35;;;;;;;1.92;0.80;;;;;;;;;;5039302;28;20202;-80
2022/02/14 14:11:02;;;;;;;1.10;0.80;;;;;;;;;;5041972;28;20230;-79
2022/02/14 14:13:40;;;;;;;4.93;1.33;;;;;;;;;;5043300;28;20206;-80
2022/02/14 14:16:07;;;;;;;2.20;1.25;;;;;;;;;;5041086;28;20719;-79
2022/02/14 14:18:34;;;;;;;1.10;0.90;;;;;;;;;;5037873;28;20215;-80
2022/02/14 14:21:06;;;;;;;3.30;1.33;;;;;;;;;;5043442;28;20217;-80
2022/02/14 14:23:36;;;;;;;1.10;0.90;;;;;;;;;;5046335;28;20281;-79
2022/02/14 14:26:03;;;;;;;1.27;0.90;;;;;;;;;;5045170;28;20264;-79
2022/02/14 14:28:30;;;;;;;1.40;0.90;;;;;;;;;;5047943;28;20293;-79
2022/02/14 14:30:57;;;;;;;1.88;1.00;;;;;;;;;;5048667;28;20236;-79
2022/02/14 14:33:24;;;;;;;1.20;0.98;;;;;;;;;;5037414;28;20199;-78
2022/02/14 14:35:51;;;;;;;1.05;0.80;;;;;;;;;;5042035;28;20655;-80
2022/02/14 14:38:19;;;;;;;1.10;0.98;;;;;;;;;;5039924;28;20615;-80
2022/02/14 14:40:48;;;;;;;1.00;0.90;;;;;;;;;;5048558;28;20195;-78
2022/02/14 14:43:15;;;;;;;1.42;0.90;;;;;;;;;;5032488;28;20199;-78
2022/02/14 14:45:45;;;;;;;1.40;0.90;;;;;;;;;;5033661;28;20606;-79
2022/02/14 14:48:12;;;;;;;1.00;0.82;;;;;;;;;;5040451;28;20293;-79
2022/02/14 14:50:39;;;;;;;2.05;0.90;;;;;;;;;;5048742;28;20194;-79
2022/02/14 14:53:06;;;;;;;2.08;0.90;;;;;;;;;;5033980;28;20219;-78
2022/02/14 14:55:34;;;;;;;1.55;0.90;;;;;;;;;;5048358;28;20206;-78
2022/02/14 14:58:02;;;;;;;2.85;1.10;;;;;;;;;;5043124;28;20285;-79
2022/02/14 15:00:30;;;;;;;1.80;1.10;;;;;;;;;;5047446;28;20242;-79